Beaminster, United Kingdom
Current Conditions -  °F | °C
As of 12:50 AM on Tuesday 21 Oct 2014 (Local Time) from EGDY Reporting Station
Light Rain Light Rain  
Wind Chill: 55°   Ceiling: 5000
Heat Index: 55°   Visibility: 6mi
Dew Point: 52°   Wind: 13mph
Humidity: 88%   Direction: 240°WSW
Pressure: 29.83"   Gusts: 26mph
Location:  50.81°N, 2.74°W
Report Text: EGDY 202350Z 24011G23KT 9999 -RADZ FEW012 SCT020 BKN050 13/11 Q1010 WHT
Loading
Personal Weather Stations






























Interactive Weather Map
Tropical Storm Tracking
New forecast layout! Learn more

10-Day Weather Forecast

Advertisements
Track Severe Weather on mobile